Time;durP1;ratioP1;P1;durP2;ratioP2;P2;SDS_P1;SDS_P2;PMS_P1;PMS_P2;Temp;Humidity;BMP_temperature;BMP_pressure;BME280_temperature;BME280_humidity;BME280_pressure;Samples;Min_cycle;Max_cycle;Signal;HPM_P1;HPM_P2
2023/05/18 00:02:07;;;;;;;285.73;268.13;;;4.40;50.40;;;;;;5033699;28;20286;-72
2023/05/18 00:04:34;;;;;;;164.40;151.43;;;4.30;51.20;;;;;;5033536;28;20190;-72
2023/05/18 00:07:03;;;;;;;194.03;180.57;;;4.30;50.10;;;;;;5028844;28;20211;-72
2023/05/18 00:09:34;;;;;;;190.18;175.82;;;4.30;50.00;;;;;;5013818;28;20405;-72
2023/05/18 00:12:01;;;;;;;183.40;170.73;;;4.30;50.00;;;;;;5013732;28;20174;-72
2023/05/18 00:14:27;;;;;;;187.38;173.98;;;4.20;49.20;;;;;;5013821;28;20405;-71
2023/05/18 00:16:53;;;;;;;180.43;166.07;;;4.20;49.90;;;;;;5013800;28;20209;-71
2023/05/18 00:19:20;;;;;;;202.20;188.23;;;4.20;49.30;;;;;;5014138;28;20179;-71
2023/05/18 00:21:46;;;;;;;311.98;291.73;;;4.20;49.30;;;;;;5013646;28;20232;-71
2023/05/18 00:24:13;;;;;;;209.02;194.20;;;4.10;49.00;;;;;;5031151;28;20198;-74
2023/05/18 00:26:40;;;;;;;212.73;197.80;;;4.10;50.40;;;;;;5033504;28;20245;-70
2023/05/18 00:29:06;;;;;;;183.25;170.20;;;4.10;50.60;;;;;;5033112;28;20583;-71
2023/05/18 00:31:37;;;;;;;179.38;166.52;;;4.10;52.20;;;;;;5022331;28;20636;-72
2023/05/18 00:34:03;;;;;;;179.17;165.73;;;4.00;51.60;;;;;;5013872;28;20201;-71
2023/05/18 00:36:30;;;;;;;236.27;220.40;;;4.00;53.00;;;;;;5013563;28;20752;-71
2023/05/18 00:38:55;;;;;;;163.87;151.40;;;4.00;53.80;;;;;;5013534;28;20262;-71
2023/05/18 00:41:21;;;;;;;170.63;158.00;;;4.00;53.00;;;;;;5013116;28;20543;-71
2023/05/18 00:43:47;;;;;;;212.67;198.50;;;4.00;53.90;;;;;;5012903;28;20179;-71
2023/05/18 00:46:12;;;;;;;221.30;206.10;;;4.00;55.60;;;;;;5013097;28;20716;-71
2023/05/18 00:48:40;;;;;;;206.33;192.27;;;4.00;51.20;;;;;;5013122;28;20707;-72
2023/05/18 00:51:06;;;;;;;164.10;151.93;;;4.00;51.50;;;;;;5013107;28;20304;-71
2023/05/18 00:53:32;;;;;;;147.63;135.17;;;4.10;50.90;;;;;;5019795;28;20528;-72
2023/05/18 00:55:58;;;;;;;182.47;169.03;;;4.00;51.80;;;;;;5033087;28;20186;-72
2023/05/18 00:58:25;;;;;;;186.40;172.87;;;4.00;52.60;;;;;;5032841;28;20555;-72
2023/05/18 01:00:51;;;;;;;134.75;122.75;;;4.00;53.10;;;;;;5032526;28;20184;-72
2023/05/18 01:03:20;;;;;;;178.23;165.30;;;3.90;54.10;;;;;;5032384;28;20571;-72
2023/05/18 01:05:54;;;;;;;225.38;209.85;;;3.90;54.20;;;;;;5032939;28;20209;-71
2023/05/18 01:08:23;;;;;;;153.50;141.50;;;3.80;55.60;;;;;;5032966;28;20210;-72
2023/05/18 01:10:56;;;;;;;195.47;181.23;;;3.90;58.10;;;;;;5031558;28;20232;-72
2023/05/18 01:14:07;;;;;;;216.25;201.82;;;3.90;61.70;;;;;;5032463;28;20515;-72
2023/05/18 01:16:40;;;;;;;154.40;141.85;;;3.90;62.70;;;;;;4993130;28;20199;-71
2023/05/18 01:19:27;;;;;;;179.18;166.25;;;3.90;58.50;;;;;;5013210;28;20232;-72
2023/05/18 01:22:07;;;;;;;183.77;170.27;;;3.90;59.30;;;;;;5012764;28;20173;-72
2023/05/18 01:24:47;;;;;;;170.10;157.40;;;3.80;58.60;;;;;;5013089;28;20176;-72
2023/05/18 01:27:15;;;;;;;169.63;157.23;;;3.80;59.40;;;;;;5012803;28;20224;-72
2023/05/18 01:29:44;;;;;;;149.38;137.00;;;3.70;60.20;;;;;;5013120;28;20689;-72
2023/05/18 01:32:17;;;;;;;160.90;147.93;;;;;;;;;;5032092;28;20192;-71
2023/05/18 01:34:42;;;;;;;175.02;161.65;;;3.70;70.80;;;;;;5032342;28;20264;-72
2023/05/18 01:37:07;;;;;;;164.20;151.20;;;3.70;58.40;;;;;;5030698;28;20266;-72
2023/05/18 01:39:33;;;;;;;143.60;131.10;;;3.70;55.00;;;;;;5031896;28;20201;-72
2023/05/18 01:42:04;;;;;;;153.80;141.43;;;3.70;60.60;;;;;;5032008;28;20230;-71
2023/05/18 01:44:38;;;;;;;181.93;168.90;;;3.60;61.80;;;;;;5031817;28;20181;-73
2023/05/18 01:47:09;;;;;;;150.18;137.80;;;3.50;63.50;;;;;;5031682;28;20208;-72
2023/05/18 01:49:41;;;;;;;191.75;178.15;;;3.50;65.00;;;;;;5031620;28;20653;-73
2023/05/18 01:52:17;;;;;;;167.73;154.65;;;3.50;66.50;;;;;;5024113;28;20206;-72
2023/05/18 01:54:48;;;;;;;163.10;150.30;;;3.30;69.80;;;;;;5012208;28;20251;-72
2023/05/18 01:57:15;;;;;;;178.68;164.95;;;3.30;53.40;;;;;;5011896;28;20217;-73
2023/05/18 01:59:42;;;;;;;147.18;134.65;;;3.40;53.40;;;;;;5012054;28;20718;-72
2023/05/18 02:02:07;;;;;;;185.85;172.10;;;3.30;49.90;;;;;;5011695;28;20190;-72
2023/05/18 02:04:34;;;;;;;177.07;163.90;;;3.20;49.90;;;;;;5012001;28;20171;-72
2023/05/18 02:06:59;;;;;;;183.73;170.43;;;3.30;50.30;;;;;;5011745;28;20209;-72
2023/05/18 02:09:25;;;;;;;173.90;160.67;;;3.30;48.20;;;;;;5011637;28;20191;-70
2023/05/18 02:11:51;;;;;;;179.87;166.80;;;3.30;44.60;;;;;;5010797;28;20425;-70
2023/05/18 02:14:16;;;;;;;176.60;163.20;;;3.20;44.40;;;;;;5011610;28;20172;-70
2023/05/18 02:16:45;;;;;;;165.17;152.60;;;3.20;44.90;;;;;;5011383;28;20184;-68
2023/05/18 02:19:12;;;;;;;191.07;177.60;;;3.30;46.70;;;;;;5011507;28;20280;-71
2023/05/18 02:21:38;;;;;;;189.40;175.55;;;3.20;50.00;;;;;;5011162;28;20221;-68
2023/05/18 02:24:04;;;;;;;169.70;157.02;;;3.20;47.30;;;;;;5029909;28;20235;-69
2023/05/18 02:26:29;;;;;;;149.03;136.93;;;3.20;48.40;;;;;;5031240;28;20280;-68
2023/05/18 02:28:55;;;;;;;180.47;167.33;;;3.20;48.30;;;;;;5031323;28;20417;-68
2023/05/18 02:31:20;;;;;;;181.13;167.40;;;3.10;48.40;;;;;;5031257;28;20168;-69
2023/05/18 02:33:46;;;;;;;187.50;173.63;;;3.10;47.80;;;;;;5030726;28;20653;-69
2023/05/18 02:36:13;;;;;;;190.87;176.27;;;3.10;46.90;;;;;;5031039;28;20171;-68
2023/05/18 02:38:41;;;;;;;179.88;165.65;;;2.90;48.10;;;;;;5031138;28;20197;-69
2023/05/18 02:41:10;;;;;;;201.60;187.82;;;2.90;48.80;;;;;;5031065;28;20185;-67
2023/05/18 02:43:36;;;;;;;197.55;183.07;;;2.90;49.80;;;;;;5031031;28;20175;-70
2023/05/18 02:46:03;;;;;;;209.57;194.87;;;2.80;46.40;;;;;;5030444;28;20285;-69
2023/05/18 02:48:29;;;;;;;167.10;154.32;;;2.80;45.40;;;;;;5025435;28;20634;-68
2023/05/18 02:50:54;;;;;;;148.60;136.43;;;2.80;45.50;;;;;;5011979;28;20216;-68
2023/05/18 02:53:20;;;;;;;151.60;138.80;;;2.90;53.10;;;;;;5011492;28;20744;-68
2023/05/18 02:55:47;;;;;;;180.60;166.67;;;3.00;52.30;;;;;;5011371;28;20179;-68
2023/05/18 02:58:16;;;;;;;171.13;157.73;;;3.00;52.30;;;;;;5011584;28;20558;-69
2023/05/18 03:00:41;;;;;;;177.55;164.38;;;2.90;52.80;;;;;;5011384;28;20181;-70
2023/05/18 03:03:14;;;;;;;137.93;125.47;;;2.90;52.30;;;;;;5011037;28;20265;-70
2023/05/18 03:05:40;;;;;;;218.63;203.73;;;2.90;52.50;;;;;;5011121;28;20241;-70
2023/05/18 03:08:05;;;;;;;184.97;171.13;;;2.80;53.10;;;;;;5011531;28;20200;-69
2023/05/18 03:10:31;;;;;;;201.83;187.13;;;2.90;53.40;;;;;;5011154;28;20619;-70
2023/05/18 03:12:56;;;;;;;151.40;139.13;;;2.80;53.80;;;;;;5013644;28;20186;-69
2023/05/18 03:15:22;;;;;;;160.07;147.17;;;2.90;54.60;;;;;;5011652;28;20255;-70
2023/05/18 03:17:48;;;;;;;146.03;133.57;;;2.80;55.10;;;;;;5011109;28;20195;-70
2023/05/18 03:20:14;;;;;;;200.35;186.60;;;2.90;54.90;;;;;;5010882;28;20548;-70
2023/05/18 03:22:40;;;;;;;180.67;166.60;;;2.90;55.80;;;;;;5010534;28;20189;-70
2023/05/18 03:25:06;;;;;;;159.37;146.27;;;2.70;56.00;;;;;;5013941;28;20425;-70
2023/05/18 03:27:32;;;;;;;132.88;121.03;;;2.70;56.90;;;;;;5014299;28;20841;-71
2023/05/18 03:29:58;;;;;;;160.82;147.90;;;2.70;56.00;;;;;;5014602;28;20168;-72
2023/05/18 03:32:23;;;;;;;160.63;148.00;;;2.70;55.30;;;;;;5014292;28;20182;-71
2023/05/18 03:34:51;;;;;;;194.90;181.10;;;2.60;55.40;;;;;;5014613;28;20192;-71
2023/05/18 03:37:17;;;;;;;136.23;124.00;;;2.70;54.50;;;;;;5014585;28;20562;-70
2023/05/18 03:39:43;;;;;;;132.60;120.37;;;2.70;55.00;;;;;;5014751;28;20206;-71
2023/05/18 03:42:08;;;;;;;185.60;171.77;;;2.60;53.50;;;;;;5014098;28;20235;-70
2023/05/18 03:44:34;;;;;;;169.53;154.63;;;2.60;53.90;;;;;;5014290;28;20192;-71
2023/05/18 03:47:00;;;;;;;141.23;128.90;;;2.60;54.10;;;;;;5014239;28;20209;-72
2023/05/18 03:49:25;;;;;;;132.27;120.30;;;2.70;54.00;;;;;;5014002;28;20271;-72
2023/05/18 03:51:53;;;;;;;169.67;156.80;;;2.70;53.80;;;;;;5013792;28;20232;-72
2023/05/18 03:54:19;;;;;;;156.60;143.65;;;2.70;53.50;;;;;;5013935;28;20187;-72
2023/05/18 03:56:45;;;;;;;165.33;151.63;;;2.70;54.20;;;;;;5013891;28;20184;-71
2023/05/18 03:59:11;;;;;;;160.23;146.65;;;2.70;54.10;;;;;;5013863;28;20799;-72
2023/05/18 04:01:40;;;;;;;146.30;133.60;;;2.70;54.50;;;;;;5019449;28;20187;-71
2023/05/18 04:04:06;;;;;;;170.60;157.27;;;2.80;54.50;;;;;;5033102;28;20172;-70
2023/05/18 04:06:34;;;;;;;161.37;148.57;;;2.80;53.30;;;;;;5033386;28;20203;-71
2023/05/18 04:09:03;;;;;;;148.52;136.48;;;2.80;55.60;;;;;;5033516;28;20202;-72
2023/05/18 04:11:29;;;;;;;219.15;204.18;;;2.90;56.10;;;;;;5016229;28;20604;-72
2023/05/18 04:13:56;;;;;;;170.40;157.02;;;2.90;55.90;;;;;;5028050;28;20200;-72
2023/05/18 04:16:22;;;;;;;209.20;195.00;;;3.00;56.20;;;;;;5032184;28;20212;-71
2023/05/18 04:18:48;;;;;;;170.10;156.90;;;3.00;56.20;;;;;;5033233;28;20746;-72
2023/05/18 04:21:14;;;;;;;177.03;163.77;;;3.10;57.40;;;;;;5031768;28;20413;-72
2023/05/18 04:23:40;;;;;;;173.68;160.40;;;3.20;56.50;;;;;;5013269;28;20182;-72
2023/05/18 04:26:07;;;;;;;161.97;148.83;;;3.30;62.60;;;;;;5013603;28;20204;-71
2023/05/18 04:28:33;;;;;;;185.93;171.98;;;3.30;63.80;;;;;;5013457;28;20269;-71
2023/05/18 04:31:00;;;;;;;159.37;146.80;;;3.40;64.90;;;;;;5013524;28;20172;-71
2023/05/18 04:33:27;;;;;;;189.05;174.82;;;3.50;66.10;;;;;;5013062;28;20172;-71
2023/05/18 04:35:57;;;;;;;187.00;172.38;;;3.50;66.70;;;;;;5016216;28;20657;-71
2023/05/18 04:38:23;;;;;;;192.02;177.73;;;3.60;72.50;;;;;;5011813;28;20628;-72
2023/05/18 04:40:49;;;;;;;187.95;174.13;;;3.70;74.50;;;;;;5013248;28;20198;-71
2023/05/18 04:43:17;;;;;;;191.43;177.70;;;3.80;72.70;;;;;;5013231;28;20179;-71
2023/05/18 04:45:45;;;;;;;140.25;128.20;;;3.90;74.80;;;;;;5011993;28;20344;-71
2023/05/18 04:48:11;;;;;;;204.13;189.70;;;3.90;75.20;;;;;;5014396;28;20281;-71
2023/05/18 04:50:36;;;;;;;200.80;186.02;;;4.00;69.90;;;;;;5032629;28;20172;-72
2023/05/18 04:53:04;;;;;;;155.33;142.37;;;4.10;68.70;;;;;;5032476;28;20230;-71
2023/05/18 04:55:31;;;;;;;196.18;181.90;;;4.20;68.90;;;;;;5032554;28;20595;-71
2023/05/18 04:57:59;;;;;;;165.35;152.93;;;4.20;68.20;;;;;;5032027;28;20220;-71
2023/05/18 05:00:29;;;;;;;223.57;208.52;;;4.30;67.10;;;;;;5018549;28;20190;-71
2023/05/18 05:02:55;;;;;;;176.75;163.63;;;4.50;67.80;;;;;;5012487;28;20194;-72
2023/05/18 05:05:21;;;;;;;171.03;157.83;;;4.60;70.00;;;;;;5012926;28;20193;-71
2023/05/18 05:07:52;;;;;;;225.35;208.30;;;4.80;67.00;;;;;;5012540;28;20548;-71
2023/05/18 05:10:19;;;;;;;192.05;177.80;;;5.00;69.50;;;;;;5011432;28;20198;-71
2023/05/18 05:12:45;;;;;;;235.05;217.88;;;;;;;;;;5012196;28;20215;-71
2023/05/18 05:15:11;;;;;;;206.40;191.25;;;5.00;65.40;;;;;;5012595;28;20191;-72
2023/05/18 05:17:36;;;;;;;212.17;196.63;;;5.20;64.70;;;;;;5012225;28;20222;-72
2023/05/18 05:20:03;;;;;;;170.57;157.33;;;5.40;63.20;;;;;;5044490;28;20532;-71
2023/05/18 05:22:28;;;;;;;201.63;187.27;;;5.70;63.20;;;;;;5020511;28;20251;-72
2023/05/18 05:24:54;;;;;;;277.03;260.10;;;6.00;60.80;;;;;;5030923;28;20422;-71
2023/05/18 05:27:19;;;;;;;258.77;242.00;;;6.60;59.50;;;;;;5031914;28;20289;-70
2023/05/18 05:29:46;;;;;;;276.43;258.73;;;7.30;49.60;;;;;;5032139;28;20171;-69
2023/05/18 05:32:12;;;;;;;343.30;323.07;;;8.20;38.80;;;;;;5030472;28;20210;-70
2023/05/18 05:34:38;;;;;;;301.70;282.93;;;9.20;33.60;;;;;;5031723;28;20940;-70
2023/05/18 05:37:04;;;;;;;343.50;322.60;;;9.50;27.40;;;;;;5024102;28;20450;-70
2023/05/18 05:39:29;;;;;;;328.80;309.23;;;9.30;27.10;;;;;;5012358;28;20419;-70
2023/05/18 05:41:55;;;;;;;352.53;329.87;;;9.50;27.00;;;;;;5011944;28;20441;-70
2023/05/18 05:44:21;;;;;;;432.90;405.60;;;9.80;25.40;;;;;;5010714;28;20513;-70
2023/05/18 05:46:47;;;;;;;414.07;387.70;;;10.80;23.10;;;;;;5015155;28;20569;-69
2023/05/18 05:49:12;;;;;;;367.63;345.93;;;13.30;14.20;;;;;;5023572;28;20184;-72
2023/05/18 05:51:38;;;;;;;476.13;448.03;;;14.60;2.40;;;;;;5031579;28;20275;-69
2023/05/18 05:54:03;;;;;;;493.67;461.37;;;15.60;1.00;;;;;;5032160;28;20172;-69
2023/05/18 05:56:29;;;;;;;542.07;507.93;;;16.70;1.00;;;;;;5030400;28;20193;-69
2023/05/18 05:58:54;;;;;;;520.93;486.60;;;17.10;1.00;;;;;;5038152;22;20707;-70
2023/05/18 06:01:20;;;;;;;455.37;426.67;;;19.00;1.00;;;;;;5011262;28;20191;-70
2023/05/18 06:03:47;;;;;;;623.17;578.87;;;21.20;1.00;;;;;;5012470;28;20655;-70
2023/05/18 06:06:13;;;;;;;627.67;583.87;;;23.10;1.00;;;;;;5012407;28;20450;-71
2023/05/18 06:08:39;;;;;;;670.50;621.97;;;24.20;1.00;;;;;;4996008;28;21010;-70
2023/05/18 06:11:04;;;;;;;676.23;628.27;;;23.90;1.00;;;;;;4991191;28;20180;-70
2023/05/18 06:13:30;;;;;;;624.13;580.57;;;24.00;1.00;;;;;;4992634;28;20653;-70
2023/05/18 06:15:56;;;;;;;735.87;681.40;;;22.90;1.00;;;;;;4991486;28;20188;-70
2023/05/18 06:18:22;;;;;;;653.97;609.03;;;21.90;1.00;;;;;;4992802;28;20443;-70
2023/05/18 06:20:47;;;;;;;598.80;558.60;;;21.80;1.00;;;;;;4992669;28;20426;-70
2023/05/18 06:23:13;;;;;;;671.47;620.37;;;22.00;1.00;;;;;;4992200;28;20560;-69
2023/05/18 06:25:39;;;;;;;704.23;650.03;;;22.80;1.00;;;;;;4992437;28;20464;-70
2023/05/18 06:28:05;;;;;;;658.13;610.97;;;23.10;1.00;;;;;;4991348;28;20848;-69
2023/05/18 06:30:30;;;;;;;624.70;581.03;;;23.30;1.00;;;;;;4992641;28;20173;-70
2023/05/18 06:32:56;;;;;;;554.97;521.43;;;23.20;1.00;;;;;;4991183;28;20180;-71
2023/05/18 06:35:22;;;;;;;702.00;647.60;;;22.60;1.00;;;;;;4992592;28;20173;-71
2023/05/18 06:37:48;;;;;;;683.20;630.53;;;22.80;1.00;;;;;;4992931;28;20200;-70
2023/05/18 06:40:14;;;;;;;610.67;567.13;;;22.90;1.00;;;;;;4992857;28;20574;-72
2023/05/18 06:42:39;;;;;;;654.03;606.53;;;22.50;1.00;;;;;;4992201;28;20192;-72
2023/05/18 06:45:06;;;;;;;714.87;658.53;;;22.60;1.00;;;;;;4991529;28;20177;-77
2023/05/18 06:47:31;;;;;;;690.33;637.93;;;23.70;1.00;;;;;;4992626;28;20204;-71
2023/05/18 06:49:57;;;;;;;688.50;635.90;;;24.20;1.00;;;;;;4992710;28;20431;-70
2023/05/18 06:52:22;;;;;;;634.40;588.57;;;24.90;1.00;;;;;;4992470;28;20177;-71
2023/05/18 06:54:48;;;;;;;692.87;642.83;;;25.80;1.00;;;;;;4992422;28;20554;-69
2023/05/18 06:57:13;;;;;;;656.43;607.60;;;25.70;1.00;;;;;;4990431;28;20498;-70
2023/05/18 06:59:39;;;;;;;671.47;619.70;;;26.10;1.00;;;;;;4994062;28;20184;-69
2023/05/18 07:02:05;;;;;;;575.20;538.07;;;25.80;1.00;;;;;;5002404;28;20185;-69
2023/05/18 07:04:31;;;;;;;654.37;607.73;;;25.10;1.00;;;;;;4998404;28;20619;-69
2023/05/18 07:06:56;;;;;;;692.13;640.10;;;25.20;1.00;;;;;;4996662;28;20483;-69
2023/05/18 07:09:22;;;;;;;775.23;711.30;;;26.10;1.00;;;;;;4996229;28;20881;-68
2023/05/18 07:11:48;;;;;;;671.90;621.67;;;25.10;1.00;;;;;;4995747;28;20195;-69
2023/05/18 07:14:14;;;;;;;788.43;722.17;;;25.00;1.00;;;;;;4996544;28;20427;-68
2023/05/18 07:16:39;;;;;;;646.23;601.33;;;24.60;1.00;;;;;;4996297;28;20235;-69
2023/05/18 07:19:05;;;;;;;620.73;578.50;;;25.10;1.00;;;;;;4996231;28;20200;-70
2023/05/18 07:21:31;;;;;;;595.47;555.50;;;25.90;1.00;;;;;;4991543;28;20184;-71
2023/05/18 07:23:57;;;;;;;568.60;530.90;;;26.50;1.00;;;;;;4991101;28;20216;-71
2023/05/18 07:26:23;;;;;;;723.07;665.03;;;26.20;1.00;;;;;;4991217;28;20459;-71
2023/05/18 07:28:50;;;;;;;555.10;519.13;;;25.90;1.00;;;;;;4991410;28;20201;-70
2023/05/18 07:31:16;;;;;;;707.67;652.00;;;25.50;1.00;;;;;;4990922;28;20180;-70
2023/05/18 07:33:43;;;;;;;690.23;638.50;;;25.10;1.00;;;;;;4989744;28;20687;-70
2023/05/18 07:36:08;;;;;;;687.70;635.97;;;24.10;1.00;;;;;;4991469;28;20497;-69
2023/05/18 07:38:34;;;;;;;722.73;664.13;;;;;;;;;;4990694;28;20838;-69
2023/05/18 07:41:00;;;;;;;599.87;558.50;;;;;;;;;;4990721;28;20405;-69
2023/05/18 07:43:26;;;;;;;738.63;675.90;;;;;;;;;;4991073;28;20438;-69
2023/05/18 07:45:52;;;;;;;646.23;598.53;;;;;;;;;;4989028;28;20435;-70
2023/05/18 07:48:18;;;;;;;636.20;589.93;;;;;;;;;;4990418;28;20455;-72
2023/05/18 07:50:44;;;;;;;781.20;713.57;;;;;;;;;;4991114;28;21601;-70
2023/05/18 07:53:10;;;;;;;780.17;711.73;;;;;;;;;;4990642;28;20423;-70
2023/05/18 07:55:36;;;;;;;764.37;702.53;;;;;;;;;;4989981;28;20420;-72
2023/05/18 07:58:02;;;;;;;736.70;678.73;;;;;;;;;;4993601;28;20852;-69
2023/05/18 08:00:28;;;;;;;733.17;674.60;;;;;;;;;;5009858;28;20633;-72
2023/05/18 08:02:54;;;;;;;664.33;615.33;;;;;;;;;;5010014;28;20779;-71
2023/05/18 08:05:21;;;;;;;597.03;553.50;;;;;;;;;;4995501;28;20423;-70
2023/05/18 08:07:47;;;;;;;685.67;632.37;;;;;;;;;;4995599;28;20470;-72
2023/05/18 08:10:13;;;;;;;635.83;589.10;;;;;;;;;;4993661;28;20924;-72
2023/05/18 08:12:39;;;;;;;608.87;565.47;;;;;;;;;;4994964;28;20467;-72
2023/05/18 08:15:06;;;;;;;620.23;572.43;;;;;;;;;;4994400;28;20412;-72
2023/05/18 08:17:32;;;;;;;712.03;656.80;;;;;;;;;;4993920;28;20850;-72
2023/05/18 08:19:58;;;;;;;649.80;599.30;;;;;;;;;;4995167;28;20462;-71
2023/05/18 08:22:24;;;;;;;663.07;613.97;;;;;;;;;;4993569;28;20438;-72
2023/05/18 08:24:50;;;;;;;699.23;644.30;;;22.30;1.00;;;;;;4995159;28;20420;-72
2023/05/18 08:27:16;;;;;;;528.33;492.57;;;26.30;1.00;;;;;;4993495;28;20460;-72
2023/05/18 08:29:41;;;;;;;588.00;546.27;;;25.90;1.00;;;;;;4991491;28;20474;-72
2023/05/18 08:32:07;;;;;;;652.30;601.37;;;26.10;1.00;;;;;;4994355;28;20188;-72
2023/05/18 08:34:33;;;;;;;588.93;546.33;;;25.70;1.00;;;;;;4993578;28;20192;-72
2023/05/18 08:36:59;;;;;;;768.03;702.90;;;25.80;1.00;;;;;;4994187;28;20189;-71
2023/05/18 08:39:24;;;;;;;866.33;788.17;;;25.90;1.00;;;;;;4983278;28;20537;-72
2023/05/18 08:42:26;;;;;;;728.97;672.87;;;25.80;1.00;;;;;;4984935;28;20216;-71
2023/05/18 08:45:12;;;;;;;841.23;767.67;;;23.40;1.00;;;;;;4981093;28;20192;-71
2023/05/18 08:47:39;;;;;;;628.13;581.40;;;22.50;1.00;;;;;;4984581;28;21018;-73
2023/05/18 08:50:05;;;;;;;641.83;595.27;;;21.40;1.00;;;;;;4990106;28;20514;-71
2023/05/18 08:52:35;;;;;;;967.50;883.70;;;20.60;1.00;;;;;;4988456;28;20470;-71
2023/05/18 08:55:06;;;;;;;668.57;617.30;;;19.90;1.00;;;;;;4989694;28;20423;-71
2023/05/18 08:57:34;;;;;;;758.17;698.77;;;19.10;1.00;;;;;;4990239;28;20967;-72
2023/05/18 09:00:03;;;;;;;733.20;674.70;;;18.80;1.00;;;;;;4988392;28;20436;-72
2023/05/18 09:02:29;;;;;;;700.10;645.43;;;19.10;1.00;;;;;;4989352;28;20439;-72
2023/05/18 09:04:56;;;;;;;758.60;698.67;;;19.20;1.00;;;;;;4991146;28;20432;-70
2023/05/18 09:07:23;;;;;;;790.67;725.03;;;18.40;1.00;;;;;;4994402;28;20521;-69
2023/05/18 09:09:49;;;;;;;903.37;827.57;;;18.10;1.00;;;;;;4994288;28;20430;-69
2023/05/18 09:12:17;;;;;;;718.20;661.83;;;17.40;1.00;;;;;;4993661;28;20514;-69
2023/05/18 09:14:43;;;;;;;683.27;631.07;;;17.40;1.00;;;;;;4994462;28;20207;-69
2023/05/18 09:17:09;;;;;;;670.43;614.30;;;17.20;1.00;;;;;;4994110;28;20474;-69
2023/05/18 09:19:35;;;;;;;706.67;649.27;;;17.20;1.00;;;;;;4994629;28;20543;-70
2023/05/18 09:22:00;;;;;;;826.70;743.03;;;17.40;1.00;;;;;;4993304;28;20419;-71
2023/05/18 09:24:26;;;;;;;707.90;652.43;;;17.40;1.00;;;;;;4992638;28;20583;-72
2023/05/18 09:26:52;;;;;;;662.50;607.97;;;17.20;1.00;;;;;;4993033;28;20291;-74
2023/05/18 09:29:20;;;;;;;698.50;644.70;;;17.50;1.00;;;;;;4974731;28;20185;-73
2023/05/18 09:31:47;;;;;;;542.13;501.83;;;17.90;1.00;;;;;;4974218;28;20525;-73
2023/05/18 09:34:13;;;;;;;727.03;668.53;;;18.20;1.00;;;;;;4982556;28;20424;-74
2023/05/18 09:36:41;;;;;;;770.43;706.77;;;18.50;1.00;;;;;;4969524;28;20432;-74
2023/05/18 09:39:09;;;;;;;584.53;539.93;;;18.40;1.00;;;;;;4991249;28;20455;-72
2023/05/18 09:41:39;;;;;;;822.50;753.43;;;18.30;1.00;;;;;;4993441;28;20424;-72
2023/05/18 09:44:08;;;;;;;806.40;737.83;;;17.90;1.00;;;;;;4993801;28;20419;-72
2023/05/18 09:46:39;;;;;;;818.63;753.10;;;17.90;1.00;;;;;;4993246;28;21026;-72
2023/05/18 09:49:05;;;;;;;685.97;630.53;;;18.00;1.00;;;;;;4993560;28;20439;-71
2023/05/18 09:51:37;;;;;;;766.23;702.33;;;18.00;1.00;;;;;;4992076;28;20522;-71
2023/05/18 09:54:04;;;;;;;844.17;773.33;;;17.80;1.00;;;;;;4993526;28;20416;-71
2023/05/18 09:56:30;;;;;;;719.37;659.27;;;17.90;1.00;;;;;;4993346;28;20471;-71
2023/05/18 09:58:57;;;;;;;669.93;617.67;;;18.00;1.00;;;;;;4992920;28;20816;-71
2023/05/18 10:01:23;;;;;;;818.57;748.37;;;18.00;1.00;;;;;;4993358;28;20447;-71
2023/05/18 10:03:48;;;;;;;742.80;680.33;;;18.10;1.00;;;;;;4993185;28;20419;-71
2023/05/18 10:06:18;;;;;;;762.30;698.83;;;17.80;1.00;;;;;;4992015;28;20204;-71
2023/05/18 10:08:44;;;;;;;735.43;677.13;;;17.70;1.00;;;;;;4991866;28;20452;-71
2023/05/18 10:11:11;;;;;;;728.80;666.47;;;17.60;1.00;;;;;;4992981;28;20416;-71
2023/05/18 10:13:37;;;;;;;711.20;653.77;;;17.70;1.00;;;;;;4992911;28;20420;-71
2023/05/18 10:16:06;;;;;;;596.50;551.43;;;17.60;1.00;;;;;;4993111;28;20909;-71
2023/05/18 10:18:35;;;;;;;802.43;734.93;;;17.50;1.00;;;;;;4992982;28;20448;-69
2023/05/18 10:21:02;;;;;;;580.17;536.83;;;17.60;1.00;;;;;;4992968;28;20471;-70
2023/05/18 10:23:35;;;;;;;767.37;704.27;;;17.50;1.00;;;;;;4992609;28;20936;-69
2023/05/18 10:26:05;;;;;;;750.07;683.77;;;17.70;1.00;;;;;;4992785;28;20439;-69
2023/05/18 10:28:37;;;;;;;729.63;668.53;;;17.20;1.00;;;;;;4992795;28;20493;-69
2023/05/18 10:31:03;;;;;;;709.40;652.17;;;17.00;1.00;;;;;;4992811;28;20905;-70
2023/05/18 10:33:30;;;;;;;773.97;712.73;;;17.20;1.00;;;;;;4991776;28;20420;-70
2023/05/18 10:35:56;;;;;;;596.40;548.70;;;17.30;1.00;;;;;;4992796;28;20423;-69
2023/05/18 10:38:26;;;;;;;769.70;705.87;;;17.40;1.00;;;;;;4992954;28;20447;-70
2023/05/18 10:40:59;;;;;;;636.07;586.77;;;17.50;1.00;;;;;;4992671;28;20787;-73
2023/05/18 10:43:26;;;;;;;973.20;891.60;;;17.60;1.00;;;;;;4993525;28;20455;-75
2023/05/18 10:45:54;;;;;;;755.37;691.27;;;17.60;1.00;;;;;;4993148;28;20420;-72
2023/05/18 10:48:21;;;;;;;747.93;686.60;;;17.60;1.00;;;;;;4991481;28;20444;-69
2023/05/18 10:50:52;;;;;;;776.33;707.63;;;17.70;1.00;;;;;;4991825;28;20423;-71
2023/05/18 10:53:19;;;;;;;764.70;699.83;;;17.80;1.00;;;;;;4991569;28;20418;-71
2023/05/18 10:55:47;;;;;;;526.20;491.67;;;17.60;1.00;;;;;;4991352;28;20779;-71
2023/05/18 10:58:15;;;;;;;664.57;613.67;;;17.50;1.00;;;;;;4992663;28;20518;-71
2023/05/18 11:00:46;;;;;;;610.07;563.47;;;17.70;1.00;;;;;;4992527;28;20424;-71
2023/05/18 11:03:14;;;;;;;722.37;666.17;;;17.90;1.00;;;;;;4992080;28;20423;-71
2023/05/18 11:05:40;;;;;;;579.13;534.80;;;17.90;1.00;;;;;;4991049;28;20424;-71
2023/05/18 11:08:06;;;;;;;714.10;653.47;;;17.90;1.00;;;;;;4992090;28;20460;-71
2023/05/18 11:10:39;;;;;;;677.70;627.57;;;17.70;1.00;;;;;;4991115;28;20482;-72
2023/05/18 11:13:06;;;;;;;704.40;647.83;;;17.60;1.00;;;;;;4992145;28;20408;-72
2023/05/18 11:15:50;;;;;;;681.57;629.13;;;17.70;1.00;;;;;;4991102;28;20423;-71
2023/05/18 11:18:16;;;;;;;583.77;541.60;;;17.60;1.00;;;;;;4992370;28;20431;-72
2023/05/18 11:20:44;;;;;;;565.23;522.60;;;17.60;1.00;;;;;;4991967;28;20412;-71
2023/05/18 11:23:10;;;;;;;919.07;842.20;;;17.50;1.00;;;;;;4990754;28;20607;-71
2023/05/18 11:25:37;;;;;;;595.97;549.77;;;17.60;1.00;;;;;;4992456;28;20448;-72
2023/05/18 11:28:12;;;;;;;808.37;741.77;;;17.70;1.00;;;;;;4992451;28;20204;-71
2023/05/18 11:30:40;;;;;;;539.83;502.60;;;18.10;1.00;;;;;;4992671;28;21007;-71
2023/05/18 11:33:13;;;;;;;649.97;599.20;;;18.70;1.00;;;;;;4992298;28;20428;-72
2023/05/18 11:35:57;;;;;;;637.87;585.83;;;19.10;1.00;;;;;;4992577;28;20408;-71
2023/05/18 11:38:53;;;;;;;731.90;670.70;;;19.50;1.00;;;;;;4990971;28;20435;-71
2023/05/18 11:41:30;;;;;;;699.20;638.90;;;19.60;1.00;;;;;;4992447;28;20921;-72
2023/05/18 11:44:11;;;;;;;773.17;708.67;;;19.50;1.00;;;;;;4991443;28;20423;-72
2023/05/18 11:46:52;;;;;;;800.00;732.73;;;19.50;1.00;;;;;;4994539;28;20457;-72
2023/05/18 11:49:20;;;;;;;666.97;612.33;;;19.60;1.00;;;;;;4976571;28;20432;-71
2023/05/18 11:52:00;;;;;;;445.67;416.50;;;19.70;1.00;;;;;;4976382;28;20874;-71
2023/05/18 11:54:26;;;;;;;641.80;589.40;;;19.90;1.00;;;;;;4976843;28;20413;-77
2023/05/18 11:56:52;;;;;;;637.10;584.67;;;19.90;1.00;;;;;;4976534;28;20409;-72
2023/05/18 11:59:32;;;;;;;645.23;592.87;;;19.50;1.00;;;;;;5016992;22;20782;-69
2023/05/18 12:02:00;;;;;;;821.27;752.13;;;19.50;1.00;;;;;;4998433;28;20428;-69
2023/05/18 12:04:26;;;;;;;604.97;549.10;;;19.60;1.00;;;;;;4994634;28;20478;-71
2023/05/18 12:06:53;;;;;;;667.40;615.17;;;19.60;1.00;;;;;;4994663;28;20545;-68
2023/05/18 12:09:19;;;;;;;529.20;491.80;;;19.80;1.00;;;;;;4994490;28;20440;-69
2023/05/18 12:11:45;;;;;;;618.57;568.40;;;19.90;1.00;;;;;;4993991;28;20775;-71
2023/05/18 12:14:11;;;;;;;504.70;470.50;;;20.10;1.00;;;;;;4994526;28;20184;-69
2023/05/18 12:16:39;;;;;;;679.93;625.90;;;20.00;1.00;;;;;;4994596;28;20263;-73
2023/05/18 12:19:06;;;;;;;562.27;517.67;;;20.20;1.00;;;;;;4994957;28;20789;-69
2023/05/18 12:21:35;;;;;;;670.90;616.50;;;19.60;1.00;;;;;;4994193;28;20446;-71
2023/05/18 12:24:01;;;;;;;688.37;636.33;;;19.70;1.00;;;;;;4994531;28;20416;-71
2023/05/18 12:26:27;;;;;;;711.20;653.27;;;19.50;1.00;;;;;;4994285;28;20970;-71